Terminal Aerodrome Forecast
Issued by NWS

Home | Current Version | Previous Version | Text Only | Print | Product List | Glossary On
Versions: 1 2 3 4 5 6 7 8 9 10 11 12 13 14 15 16 17 18 19 20 21 22 23 24 25 26 27 28 29 30 31 32
000
FTUS45 KPSR 131135
TAFIWA
TAF
KIWA 131135Z 1312/1412 11005KT P6SM BKN250
     FM131700 VRB03KT P6SM SCT250
     FM132000 27005KT P6SM FEW250
     FM140400 11007KT P6SM FEW250
      AMD LTD TO CLD VIS AND WIND TIL 131300=

USA.gov is the U.S. government's official web portal to all federal, state and local government web resources and services.